sensor_id;sensor_type;location;lat;lon;timestamp;pressure;altitude;pressure_sealevel;temperature
16956;BMP180;8594;52.052;8.354;2022-07-26T00:00:49;100334.00;;;24.30
16956;BMP180;8594;52.052;8.354;2022-07-26T00:03:16;100337.00;;;24.20
16956;BMP180;8594;52.052;8.354;2022-07-26T00:05:44;100335.00;;;24.40
16956;BMP180;8594;52.052;8.354;2022-07-26T00:08:11;100337.00;;;24.20
16956;BMP180;8594;52.052;8.354;2022-07-26T00:10:42;100338.00;;;24.40
16956;BMP180;8594;52.052;8.354;2022-07-26T00:13:10;100338.00;;;24.60
16956;BMP180;8594;52.052;8.354;2022-07-26T00:15:37;100337.00;;;24.60
16956;BMP180;8594;52.052;8.354;2022-07-26T00:18:05;100336.00;;;24.50
16956;BMP180;8594;52.052;8.354;2022-07-26T00:20:32;100340.00;;;24.60
16956;BMP180;8594;52.052;8.354;2022-07-26T00:23:01;100339.00;;;24.70
16956;BMP180;8594;52.052;8.354;2022-07-26T00:25:28;100341.00;;;24.20
16956;BMP180;8594;52.052;8.354;2022-07-26T00:27:55;100340.00;;;24.30
16956;BMP180;8594;52.052;8.354;2022-07-26T00:30:22;100337.00;;;24.20
16956;BMP180;8594;52.052;8.354;2022-07-26T00:32:49;100335.00;;;24.50
16956;BMP180;8594;52.052;8.354;2022-07-26T00:35:18;100333.00;;;24.40
16956;BMP180;8594;52.052;8.354;2022-07-26T00:37:45;100337.00;;;24.60
16956;BMP180;8594;52.052;8.354;2022-07-26T00:40:14;100335.00;;;24.50
16956;BMP180;8594;52.052;8.354;2022-07-26T00:42:41;100340.00;;;24.50
16956;BMP180;8594;52.052;8.354;2022-07-26T00:45:11;100347.00;;;24.20
16956;BMP180;8594;52.052;8.354;2022-07-26T00:47:38;100347.00;;;24.20
16956;BMP180;8594;52.052;8.354;2022-07-26T00:50:12;100346.00;;;24.10
16956;BMP180;8594;52.052;8.354;2022-07-26T00:52:41;100341.00;;;24.30
16956;BMP180;8594;52.052;8.354;2022-07-26T00:55:09;100345.00;;;24.60
16956;BMP180;8594;52.052;8.354;2022-07-26T00:57:38;100346.00;;;24.20
16956;BMP180;8594;52.052;8.354;2022-07-26T01:00:10;100348.00;;;24.20
16956;BMP180;8594;52.052;8.354;2022-07-26T01:02:38;100342.00;;;24.20
16956;BMP180;8594;52.052;8.354;2022-07-26T01:05:06;100337.00;;;24.30
16956;BMP180;8594;52.052;8.354;2022-07-26T01:07:35;100339.00;;;24.20
16956;BMP180;8594;52.052;8.354;2022-07-26T01:10:04;100337.00;;;24.30
16956;BMP180;8594;52.052;8.354;2022-07-26T01:12:32;100336.00;;;24.20
16956;BMP180;8594;52.052;8.354;2022-07-26T01:15:00;100335.00;;;24.00
16956;BMP180;8594;52.052;8.354;2022-07-26T01:17:27;100339.00;;;23.90
16956;BMP180;8594;52.052;8.354;2022-07-26T01:19:54;100338.00;;;24.00
16956;BMP180;8594;52.052;8.354;2022-07-26T01:22:22;100335.00;;;23.90
16956;BMP180;8594;52.052;8.354;2022-07-26T01:24:49;100336.00;;;24.10
16956;BMP180;8594;52.052;8.354;2022-07-26T01:27:16;100338.00;;;23.70
16956;BMP180;8594;52.052;8.354;2022-07-26T01:29:44;100337.00;;;24.00
16956;BMP180;8594;52.052;8.354;2022-07-26T01:32:10;100331.00;;;24.10
16956;BMP180;8594;52.052;8.354;2022-07-26T01:34:39;100339.00;;;24.20
16956;BMP180;8594;52.052;8.354;2022-07-26T01:37:06;100339.00;;;23.80
16956;BMP180;8594;52.052;8.354;2022-07-26T01:39:34;100343.00;;;23.80
16956;BMP180;8594;52.052;8.354;2022-07-26T01:42:01;100339.00;;;23.40
16956;BMP180;8594;52.052;8.354;2022-07-26T01:44:28;100346.00;;;23.90
16956;BMP180;8594;52.052;8.354;2022-07-26T01:46:55;100335.00;;;23.60
16956;BMP180;8594;52.052;8.354;2022-07-26T01:49:22;100343.00;;;23.50
16956;BMP180;8594;52.052;8.354;2022-07-26T01:51:49;100341.00;;;23.60
16956;BMP180;8594;52.052;8.354;2022-07-26T01:54:16;100341.00;;;23.50
16956;BMP180;8594;52.052;8.354;2022-07-26T01:56:44;100335.00;;;23.60
16956;BMP180;8594;52.052;8.354;2022-07-26T01:59:11;100333.00;;;23.40
16956;BMP180;8594;52.052;8.354;2022-07-26T02:01:38;100342.00;;;23.50
16956;BMP180;8594;52.052;8.354;2022-07-26T02:04:05;100352.00;;;23.30
16956;BMP180;8594;52.052;8.354;2022-07-26T02:06:31;100343.00;;;23.70
16956;BMP180;8594;52.052;8.354;2022-07-26T02:08:59;100343.00;;;23.50
16956;BMP180;8594;52.052;8.354;2022-07-26T02:11:26;100333.00;;;23.80
16956;BMP180;8594;52.052;8.354;2022-07-26T02:13:54;100341.00;;;23.50
16956;BMP180;8594;52.052;8.354;2022-07-26T02:16:21;100339.00;;;23.70
16956;BMP180;8594;52.052;8.354;2022-07-26T02:18:48;100345.00;;;23.40
16956;BMP180;8594;52.052;8.354;2022-07-26T02:21:15;100351.00;;;23.60
16956;BMP180;8594;52.052;8.354;2022-07-26T02:23:42;100355.00;;;23.50
16956;BMP180;8594;52.052;8.354;2022-07-26T02:26:09;100359.00;;;23.30
16956;BMP180;8594;52.052;8.354;2022-07-26T02:28:38;100356.00;;;23.70
16956;BMP180;8594;52.052;8.354;2022-07-26T02:31:07;100350.00;;;23.50
16956;BMP180;8594;52.052;8.354;2022-07-26T02:33:34;100361.00;;;23.60
16956;BMP180;8594;52.052;8.354;2022-07-26T02:36:01;100359.00;;;23.80
16956;BMP180;8594;52.052;8.354;2022-07-26T02:38:28;100365.00;;;23.50
16956;BMP180;8594;52.052;8.354;2022-07-26T02:40:54;100363.00;;;23.40
16956;BMP180;8594;52.052;8.354;2022-07-26T02:43:21;100361.00;;;23.10
16956;BMP180;8594;52.052;8.354;2022-07-26T02:45:48;100356.00;;;23.20
16956;BMP180;8594;52.052;8.354;2022-07-26T02:48:16;100353.00;;;23.10
16956;BMP180;8594;52.052;8.354;2022-07-26T02:50:43;100365.00;;;23.00
16956;BMP180;8594;52.052;8.354;2022-07-26T02:53:10;100367.00;;;23.00
16956;BMP180;8594;52.052;8.354;2022-07-26T02:55:37;100368.00;;;23.40
16956;BMP180;8594;52.052;8.354;2022-07-26T02:58:04;100365.00;;;23.30
16956;BMP180;8594;52.052;8.354;2022-07-26T03:00:30;100359.00;;;23.10
16956;BMP180;8594;52.052;8.354;2022-07-26T03:02:57;100367.00;;;23.20
16956;BMP180;8594;52.052;8.354;2022-07-26T03:05:26;100363.00;;;23.10
16956;BMP180;8594;52.052;8.354;2022-07-26T03:07:53;100366.00;;;23.20
16956;BMP180;8594;52.052;8.354;2022-07-26T03:10:20;100369.00;;;22.80
16956;BMP180;8594;52.052;8.354;2022-07-26T03:12:47;100362.00;;;22.90
16956;BMP180;8594;52.052;8.354;2022-07-26T03:15:14;100367.00;;;22.90
16956;BMP180;8594;52.052;8.354;2022-07-26T03:17:41;100372.00;;;23.00
16956;BMP180;8594;52.052;8.354;2022-07-26T03:20:10;100374.00;;;23.20
16956;BMP180;8594;52.052;8.354;2022-07-26T03:22:39;100377.00;;;23.00
16956;BMP180;8594;52.052;8.354;2022-07-26T03:25:06;100380.00;;;22.90
16956;BMP180;8594;52.052;8.354;2022-07-26T03:27:33;100375.00;;;23.00
16956;BMP180;8594;52.052;8.354;2022-07-26T03:30:00;100381.00;;;23.40
16956;BMP180;8594;52.052;8.354;2022-07-26T03:32:27;100388.00;;;23.20
16956;BMP180;8594;52.052;8.354;2022-07-26T03:34:54;100391.00;;;22.90
16956;BMP180;8594;52.052;8.354;2022-07-26T03:37:20;100395.00;;;22.70
16956;BMP180;8594;52.052;8.354;2022-07-26T03:39:49;100391.00;;;23.10
16956;BMP180;8594;52.052;8.354;2022-07-26T03:42:16;100387.00;;;23.20
16956;BMP180;8594;52.052;8.354;2022-07-26T03:44:42;100390.00;;;23.30
16956;BMP180;8594;52.052;8.354;2022-07-26T03:47:09;100388.00;;;23.20
16956;BMP180;8594;52.052;8.354;2022-07-26T03:49:36;100389.00;;;23.10
16956;BMP180;8594;52.052;8.354;2022-07-26T03:52:03;100393.00;;;22.80
16956;BMP180;8594;52.052;8.354;2022-07-26T03:54:30;100389.00;;;23.30
16956;BMP180;8594;52.052;8.354;2022-07-26T03:56:58;100392.00;;;23.10
16956;BMP180;8594;52.052;8.354;2022-07-26T03:59:24;100389.00;;;22.80
16956;BMP180;8594;52.052;8.354;2022-07-26T04:01:51;100398.00;;;22.70
16956;BMP180;8594;52.052;8.354;2022-07-26T04:04:19;100394.00;;;23.00
16956;BMP180;8594;52.052;8.354;2022-07-26T04:06:46;100389.00;;;23.00
16956;BMP180;8594;52.052;8.354;2022-07-26T04:09:14;100392.00;;;22.90
16956;BMP180;8594;52.052;8.354;2022-07-26T04:11:41;100393.00;;;23.20
16956;BMP180;8594;52.052;8.354;2022-07-26T04:14:10;100386.00;;;23.10
16956;BMP180;8594;52.052;8.354;2022-07-26T04:16:37;100394.00;;;22.80
16956;BMP180;8594;52.052;8.354;2022-07-26T04:19:04;100394.00;;;23.00
16956;BMP180;8594;52.052;8.354;2022-07-26T04:21:31;100396.00;;;23.00
16956;BMP180;8594;52.052;8.354;2022-07-26T04:23:58;100397.00;;;23.00
16956;BMP180;8594;52.052;8.354;2022-07-26T04:26:26;100398.00;;;22.60
16956;BMP180;8594;52.052;8.354;2022-07-26T04:28:54;100409.00;;;23.00
16956;BMP180;8594;52.052;8.354;2022-07-26T04:31:22;100400.00;;;22.80
16956;BMP180;8594;52.052;8.354;2022-07-26T04:33:49;100400.00;;;22.90
16956;BMP180;8594;52.052;8.354;2022-07-26T04:36:16;100404.00;;;22.80
16956;BMP180;8594;52.052;8.354;2022-07-26T04:38:43;100412.00;;;22.60
16956;BMP180;8594;52.052;8.354;2022-07-26T04:41:10;100415.00;;;22.60
16956;BMP180;8594;52.052;8.354;2022-07-26T04:43:37;100407.00;;;23.10
16956;BMP180;8594;52.052;8.354;2022-07-26T04:46:04;100411.00;;;22.80
16956;BMP180;8594;52.052;8.354;2022-07-26T04:48:32;100411.00;;;22.60
16956;BMP180;8594;52.052;8.354;2022-07-26T04:50:59;100400.00;;;23.10
16956;BMP180;8594;52.052;8.354;2022-07-26T04:53:26;100403.00;;;23.30
16956;BMP180;8594;52.052;8.354;2022-07-26T04:55:53;100403.00;;;22.50
16956;BMP180;8594;52.052;8.354;2022-07-26T04:58:19;100404.00;;;22.80
16956;BMP180;8594;52.052;8.354;2022-07-26T05:00:46;100407.00;;;23.00
16956;BMP180;8594;52.052;8.354;2022-07-26T05:03:13;100398.00;;;22.80
16956;BMP180;8594;52.052;8.354;2022-07-26T05:05:41;100391.00;;;23.10
16956;BMP180;8594;52.052;8.354;2022-07-26T05:08:08;100394.00;;;23.40
16956;BMP180;8594;52.052;8.354;2022-07-26T05:10:36;100393.00;;;24.00
16956;BMP180;8594;52.052;8.354;2022-07-26T05:13:05;100398.00;;;23.80
16956;BMP180;8594;52.052;8.354;2022-07-26T05:15:34;100394.00;;;23.50
16956;BMP180;8594;52.052;8.354;2022-07-26T05:18:04;100394.00;;;23.50
16956;BMP180;8594;52.052;8.354;2022-07-26T05:20:31;100400.00;;;23.50
16956;BMP180;8594;52.052;8.354;2022-07-26T05:22:59;100396.00;;;23.30
16956;BMP180;8594;52.052;8.354;2022-07-26T05:25:26;100397.00;;;23.40
16956;BMP180;8594;52.052;8.354;2022-07-26T05:27:53;100404.00;;;23.50
16956;BMP180;8594;52.052;8.354;2022-07-26T05:30:20;100410.00;;;22.90
16956;BMP180;8594;52.052;8.354;2022-07-26T05:32:47;100409.00;;;23.20
16956;BMP180;8594;52.052;8.354;2022-07-26T05:35:14;100409.00;;;23.30
16956;BMP180;8594;52.052;8.354;2022-07-26T05:37:41;100412.00;;;23.50
16956;BMP180;8594;52.052;8.354;2022-07-26T05:40:11;100415.00;;;23.50
16956;BMP180;8594;52.052;8.354;2022-07-26T05:42:38;100419.00;;;23.50
16956;BMP180;8594;52.052;8.354;2022-07-26T05:45:06;100414.00;;;22.80
16956;BMP180;8594;52.052;8.354;2022-07-26T05:47:33;100417.00;;;23.20
16956;BMP180;8594;52.052;8.354;2022-07-26T05:50:00;100415.00;;;23.50
16956;BMP180;8594;52.052;8.354;2022-07-26T05:52:27;100418.00;;;22.80
16956;BMP180;8594;52.052;8.354;2022-07-26T05:54:54;100426.00;;;23.00
16956;BMP180;8594;52.052;8.354;2022-07-26T05:57:22;100426.00;;;23.30
16956;BMP180;8594;52.052;8.354;2022-07-26T05:59:49;100429.00;;;22.60
16956;BMP180;8594;52.052;8.354;2022-07-26T06:02:16;100425.00;;;23.20
16956;BMP180;8594;52.052;8.354;2022-07-26T06:04:43;100432.00;;;23.40
16956;BMP180;8594;52.052;8.354;2022-07-26T06:07:10;100427.00;;;23.60
16956;BMP180;8594;52.052;8.354;2022-07-26T06:09:37;100426.00;;;23.30
16956;BMP180;8594;52.052;8.354;2022-07-26T06:12:04;100424.00;;;23.80
16956;BMP180;8594;52.052;8.354;2022-07-26T06:14:33;100403.00;;;24.60
16956;BMP180;8594;52.052;8.354;2022-07-26T06:17:00;100426.00;;;25.20
16956;BMP180;8594;52.052;8.354;2022-07-26T06:19:29;100427.00;;;25.30
16956;BMP180;8594;52.052;8.354;2022-07-26T06:21:55;100430.00;;;24.60
16956;BMP180;8594;52.052;8.354;2022-07-26T06:24:22;100439.00;;;24.30
16956;BMP180;8594;52.052;8.354;2022-07-26T06:26:49;100440.00;;;24.60
16956;BMP180;8594;52.052;8.354;2022-07-26T06:29:18;100439.00;;;24.10
16956;BMP180;8594;52.052;8.354;2022-07-26T06:31:46;100442.00;;;24.70
16956;BMP180;8594;52.052;8.354;2022-07-26T06:34:14;100433.00;;;25.10
16956;BMP180;8594;52.052;8.354;2022-07-26T06:36:41;100445.00;;;25.00
16956;BMP180;8594;52.052;8.354;2022-07-26T06:39:08;100449.00;;;24.90
16956;BMP180;8594;52.052;8.354;2022-07-26T06:41:35;100446.00;;;25.80
16956;BMP180;8594;52.052;8.354;2022-07-26T06:44:02;100452.00;;;26.00
16956;BMP180;8594;52.052;8.354;2022-07-26T06:46:29;100453.00;;;26.60
16956;BMP180;8594;52.052;8.354;2022-07-26T06:48:57;100468.00;;;25.90
16956;BMP180;8594;52.052;8.354;2022-07-26T06:51:24;100458.00;;;25.30
16956;BMP180;8594;52.052;8.354;2022-07-26T06:53:50;100461.00;;;25.10
16956;BMP180;8594;52.052;8.354;2022-07-26T06:56:18;100465.00;;;25.00
16956;BMP180;8594;52.052;8.354;2022-07-26T06:58:46;100457.00;;;25.40
16956;BMP180;8594;52.052;8.354;2022-07-26T07:01:13;100467.00;;;25.30
16956;BMP180;8594;52.052;8.354;2022-07-26T07:03:39;100465.00;;;24.80
16956;BMP180;8594;52.052;8.354;2022-07-26T07:06:08;100472.00;;;25.00
16956;BMP180;8594;52.052;8.354;2022-07-26T07:08:35;100467.00;;;25.10
16956;BMP180;8594;52.052;8.354;2022-07-26T07:11:01;100469.00;;;24.80
16956;BMP180;8594;52.052;8.354;2022-07-26T07:13:28;100465.00;;;24.20
16956;BMP180;8594;52.052;8.354;2022-07-26T07:15:55;100471.00;;;23.90
16956;BMP180;8594;52.052;8.354;2022-07-26T07:18:22;100471.00;;;24.70
16956;BMP180;8594;52.052;8.354;2022-07-26T07:20:49;100469.00;;;24.70
16956;BMP180;8594;52.052;8.354;2022-07-26T07:23:17;100477.00;;;25.00
16956;BMP180;8594;52.052;8.354;2022-07-26T07:25:46;100479.00;;;24.60
16956;BMP180;8594;52.052;8.354;2022-07-26T07:28:13;100476.00;;;25.10
16956;BMP180;8594;52.052;8.354;2022-07-26T07:30:40;100477.00;;;24.80
16956;BMP180;8594;52.052;8.354;2022-07-26T07:33:07;100486.00;;;24.40
16956;BMP180;8594;52.052;8.354;2022-07-26T07:35:37;100479.00;;;24.00
16956;BMP180;8594;52.052;8.354;2022-07-26T07:38:04;100483.00;;;24.20
16956;BMP180;8594;52.052;8.354;2022-07-26T07:40:32;100485.00;;;24.40
16956;BMP180;8594;52.052;8.354;2022-07-26T07:43:00;100486.00;;;24.30
16956;BMP180;8594;52.052;8.354;2022-07-26T07:45:27;100483.00;;;24.50
16956;BMP180;8594;52.052;8.354;2022-07-26T07:47:53;100487.00;;;25.10
16956;BMP180;8594;52.052;8.354;2022-07-26T07:50:22;100485.00;;;24.80
16956;BMP180;8594;52.052;8.354;2022-07-26T07:53:03;100490.00;;;24.80
16956;BMP180;8594;52.052;8.354;2022-07-26T07:55:31;100479.00;;;24.80
16956;BMP180;8594;52.052;8.354;2022-07-26T07:57:58;100486.00;;;24.90
16956;BMP180;8594;52.052;8.354;2022-07-26T08:00:25;100486.00;;;24.50
16956;BMP180;8594;52.052;8.354;2022-07-26T08:02:52;100495.00;;;24.40
16956;BMP180;8594;52.052;8.354;2022-07-26T08:05:19;100492.00;;;24.00
16956;BMP180;8594;52.052;8.354;2022-07-26T08:07:46;100469.00;;;25.00
16956;BMP180;8594;52.052;8.354;2022-07-26T08:10:13;100488.00;;;25.30
16956;BMP180;8594;52.052;8.354;2022-07-26T08:12:42;100482.00;;;25.80
16956;BMP180;8594;52.052;8.354;2022-07-26T08:15:10;100487.00;;;25.90
16956;BMP180;8594;52.052;8.354;2022-07-26T08:17:37;100478.00;;;26.40
16956;BMP180;8594;52.052;8.354;2022-07-26T08:20:06;100483.00;;;26.20
16956;BMP180;8594;52.052;8.354;2022-07-26T08:22:33;100486.00;;;25.30
16956;BMP180;8594;52.052;8.354;2022-07-26T08:24:59;100484.00;;;24.90
16956;BMP180;8594;52.052;8.354;2022-07-26T08:27:26;100490.00;;;25.20
16956;BMP180;8594;52.052;8.354;2022-07-26T08:29:54;100480.00;;;25.00
16956;BMP180;8594;52.052;8.354;2022-07-26T08:32:21;100492.00;;;24.90
16956;BMP180;8594;52.052;8.354;2022-07-26T08:34:48;100492.00;;;25.20
16956;BMP180;8594;52.052;8.354;2022-07-26T08:37:14;100487.00;;;25.10
16956;BMP180;8594;52.052;8.354;2022-07-26T08:39:41;100498.00;;;25.10
16956;BMP180;8594;52.052;8.354;2022-07-26T08:42:13;100491.00;;;25.00
16956;BMP180;8594;52.052;8.354;2022-07-26T08:44:41;100503.00;;;25.30
16956;BMP180;8594;52.052;8.354;2022-07-26T08:47:11;100501.00;;;25.20
16956;BMP180;8594;52.052;8.354;2022-07-26T08:49:39;100500.00;;;25.10
16956;BMP180;8594;52.052;8.354;2022-07-26T08:52:07;100514.00;;;25.30
16956;BMP180;8594;52.052;8.354;2022-07-26T08:54:35;100526.00;;;25.00
16956;BMP180;8594;52.052;8.354;2022-07-26T08:57:02;100536.00;;;24.40
16956;BMP180;8594;52.052;8.354;2022-07-26T08:59:29;100544.00;;;23.90
16956;BMP180;8594;52.052;8.354;2022-07-26T09:01:58;100548.00;;;23.80
16956;BMP180;8594;52.052;8.354;2022-07-26T09:04:28;100546.00;;;23.10
16956;BMP180;8594;52.052;8.354;2022-07-26T09:06:59;100559.00;;;23.40
16956;BMP180;8594;52.052;8.354;2022-07-26T09:09:27;100557.00;;;22.80
16956;BMP180;8594;52.052;8.354;2022-07-26T09:11:55;100561.00;;;22.00
16956;BMP180;8594;52.052;8.354;2022-07-26T09:14:34;100566.00;;;21.90
16956;BMP180;8594;52.052;8.354;2022-07-26T09:17:01;100574.00;;;21.80
16956;BMP180;8594;52.052;8.354;2022-07-26T09:19:31;100591.00;;;21.90
16956;BMP180;8594;52.052;8.354;2022-07-26T09:22:06;100589.00;;;22.00
16956;BMP180;8594;52.052;8.354;2022-07-26T09:24:37;100582.00;;;21.70
16956;BMP180;8594;52.052;8.354;2022-07-26T09:27:08;100579.00;;;21.40
16956;BMP180;8594;52.052;8.354;2022-07-26T09:29:47;100577.00;;;21.50
16956;BMP180;8594;52.052;8.354;2022-07-26T09:32:17;100565.00;;;21.60
16956;BMP180;8594;52.052;8.354;2022-07-26T09:34:48;100577.00;;;21.60
16956;BMP180;8594;52.052;8.354;2022-07-26T09:37:16;100573.00;;;21.80
16956;BMP180;8594;52.052;8.354;2022-07-26T09:39:54;100581.00;;;22.30
16956;BMP180;8594;52.052;8.354;2022-07-26T09:42:22;100581.00;;;22.60
16956;BMP180;8594;52.052;8.354;2022-07-26T09:44:50;100581.00;;;22.80
16956;BMP180;8594;52.052;8.354;2022-07-26T09:47:17;100576.00;;;22.80
16956;BMP180;8594;52.052;8.354;2022-07-26T09:49:45;100588.00;;;22.90
16956;BMP180;8594;52.052;8.354;2022-07-26T09:52:17;100589.00;;;23.00
16956;BMP180;8594;52.052;8.354;2022-07-26T09:54:45;100594.00;;;22.80
16956;BMP180;8594;52.052;8.354;2022-07-26T09:57:16;100595.00;;;23.40
16956;BMP180;8594;52.052;8.354;2022-07-26T09:59:44;100595.00;;;23.20
16956;BMP180;8594;52.052;8.354;2022-07-26T10:02:12;100606.00;;;23.50
16956;BMP180;8594;52.052;8.354;2022-07-26T10:04:40;100601.00;;;23.40
16956;BMP180;8594;52.052;8.354;2022-07-26T10:07:09;100612.00;;;23.30
16956;BMP180;8594;52.052;8.354;2022-07-26T10:09:51;100619.00;;;23.40
16956;BMP180;8594;52.052;8.354;2022-07-26T10:12:22;100614.00;;;23.70
16956;BMP180;8594;52.052;8.354;2022-07-26T10:14:50;100613.00;;;23.00
16956;BMP180;8594;52.052;8.354;2022-07-26T10:17:39;100638.00;;;23.20
16956;BMP180;8594;52.052;8.354;2022-07-26T10:20:09;100628.00;;;22.00
16956;BMP180;8594;52.052;8.354;2022-07-26T10:22:44;100626.00;;;21.80
16956;BMP180;8594;52.052;8.354;2022-07-26T10:25:46;100624.00;;;21.50
16956;BMP180;8594;52.052;8.354;2022-07-26T10:28:24;100634.00;;;21.80
16956;BMP180;8594;52.052;8.354;2022-07-26T10:30:58;100631.00;;;21.60
16956;BMP180;8594;52.052;8.354;2022-07-26T10:33:48;100636.00;;;21.90
16956;BMP180;8594;52.052;8.354;2022-07-26T10:36:24;100636.00;;;22.10
16956;BMP180;8594;52.052;8.354;2022-07-26T10:39:06;100639.00;;;22.20
16956;BMP180;8594;52.052;8.354;2022-07-26T10:41:38;100641.00;;;22.50
16956;BMP180;8594;52.052;8.354;2022-07-26T10:44:26;100643.00;;;22.90
16956;BMP180;8594;52.052;8.354;2022-07-26T10:47:03;100642.00;;;23.20
16956;BMP180;8594;52.052;8.354;2022-07-26T10:49:37;100645.00;;;23.20
16956;BMP180;8594;52.052;8.354;2022-07-26T10:52:17;100655.00;;;23.10
16956;BMP180;8594;52.052;8.354;2022-07-26T10:55:09;100659.00;;;22.90
16956;BMP180;8594;52.052;8.354;2022-07-26T10:57:38;100662.00;;;23.00
16956;BMP180;8594;52.052;8.354;2022-07-26T11:00:12;100661.00;;;23.20
16956;BMP180;8594;52.052;8.354;2022-07-26T11:02:40;100664.00;;;23.00
16956;BMP180;8594;52.052;8.354;2022-07-26T11:05:10;100669.00;;;23.10
16956;BMP180;8594;52.052;8.354;2022-07-26T11:07:53;100666.00;;;23.00
16956;BMP180;8594;52.052;8.354;2022-07-26T11:10:24;100665.00;;;22.60
16956;BMP180;8594;52.052;8.354;2022-07-26T11:13:11;100663.00;;;22.80
16956;BMP180;8594;52.052;8.354;2022-07-26T11:15:41;100668.00;;;23.40
16956;BMP180;8594;52.052;8.354;2022-07-26T11:18:17;100669.00;;;23.40
16956;BMP180;8594;52.052;8.354;2022-07-26T11:20:46;100668.00;;;23.60
16956;BMP180;8594;52.052;8.354;2022-07-26T11:23:35;100666.00;;;23.30
16956;BMP180;8594;52.052;8.354;2022-07-26T11:26:09;100671.00;;;23.70
16956;BMP180;8594;52.052;8.354;2022-07-26T11:28:51;100667.00;;;23.50
16956;BMP180;8594;52.052;8.354;2022-07-26T11:31:21;100669.00;;;23.70
16956;BMP180;8594;52.052;8.354;2022-07-26T11:33:51;100662.00;;;24.20
16956;BMP180;8594;52.052;8.354;2022-07-26T11:36:30;100676.00;;;23.80
16956;BMP180;8594;52.052;8.354;2022-07-26T11:38:58;100673.00;;;24.40
16956;BMP180;8594;52.052;8.354;2022-07-26T11:41:28;100677.00;;;24.50
16956;BMP180;8594;52.052;8.354;2022-07-26T11:43:57;100671.00;;;24.50
16956;BMP180;8594;52.052;8.354;2022-07-26T11:46:36;100678.00;;;24.40
16956;BMP180;8594;52.052;8.354;2022-07-26T11:49:12;100685.00;;;24.40
16956;BMP180;8594;52.052;8.354;2022-07-26T11:51:47;100692.00;;;23.80
16956;BMP180;8594;52.052;8.354;2022-07-26T11:54:14;100691.00;;;23.30
16956;BMP180;8594;52.052;8.354;2022-07-26T11:56:53;100683.00;;;23.10
16956;BMP180;8594;52.052;8.354;2022-07-26T11:59:22;100702.00;;;23.40
16956;BMP180;8594;52.052;8.354;2022-07-26T12:01:50;100700.00;;;23.00
16956;BMP180;8594;52.052;8.354;2022-07-26T12:04:21;100703.00;;;23.10
16956;BMP180;8594;52.052;8.354;2022-07-26T12:06:51;100699.00;;;22.90
16956;BMP180;8594;52.052;8.354;2022-07-26T12:09:34;100705.00;;;23.30
16956;BMP180;8594;52.052;8.354;2022-07-26T12:12:05;100707.00;;;23.10
16956;BMP180;8594;52.052;8.354;2022-07-26T12:14:36;100708.00;;;23.20
16956;BMP180;8594;52.052;8.354;2022-07-26T12:17:12;100711.00;;;23.00
16956;BMP180;8594;52.052;8.354;2022-07-26T12:19:40;100706.00;;;23.00
16956;BMP180;8594;52.052;8.354;2022-07-26T12:22:09;100710.00;;;22.90
16956;BMP180;8594;52.052;8.354;2022-07-26T12:24:43;100701.00;;;22.90
16956;BMP180;8594;52.052;8.354;2022-07-26T12:27:15;100712.00;;;22.70
16956;BMP180;8594;52.052;8.354;2022-07-26T12:29:47;100717.00;;;22.90
16956;BMP180;8594;52.052;8.354;2022-07-26T12:32:17;100722.00;;;22.30
16956;BMP180;8594;52.052;8.354;2022-07-26T12:34:56;100720.00;;;22.20
16956;BMP180;8594;52.052;8.354;2022-07-26T12:37:24;100719.00;;;22.40
16956;BMP180;8594;52.052;8.354;2022-07-26T12:40:01;100722.00;;;22.50
16956;BMP180;8594;52.052;8.354;2022-07-26T12:42:32;100719.00;;;22.70
16956;BMP180;8594;52.052;8.354;2022-07-26T12:45:01;100713.00;;;22.20
16956;BMP180;8594;52.052;8.354;2022-07-26T12:47:29;100714.00;;;22.30
16956;BMP180;8594;52.052;8.354;2022-07-26T12:49:55;100713.00;;;22.40
16956;BMP180;8594;52.052;8.354;2022-07-26T12:52:23;100716.00;;;22.40
16956;BMP180;8594;52.052;8.354;2022-07-26T12:54:52;100717.00;;;22.40
16956;BMP180;8594;52.052;8.354;2022-07-26T12:57:20;100712.00;;;22.70
16956;BMP180;8594;52.052;8.354;2022-07-26T12:59:48;100707.00;;;22.80
16956;BMP180;8594;52.052;8.354;2022-07-26T13:02:16;100706.00;;;22.60
16956;BMP180;8594;52.052;8.354;2022-07-26T13:04:45;100697.00;;;22.70
16956;BMP180;8594;52.052;8.354;2022-07-26T13:07:12;100698.00;;;22.70
16956;BMP180;8594;52.052;8.354;2022-07-26T13:09:40;100695.00;;;23.20
16956;BMP180;8594;52.052;8.354;2022-07-26T13:12:09;100703.00;;;23.00
16956;BMP180;8594;52.052;8.354;2022-07-26T13:14:37;100698.00;;;23.10
16956;BMP180;8594;52.052;8.354;2022-07-26T13:17:08;100701.00;;;23.10
16956;BMP180;8594;52.052;8.354;2022-07-26T13:19:36;100709.00;;;23.40
16956;BMP180;8594;52.052;8.354;2022-07-26T13:22:05;100707.00;;;23.10
16956;BMP180;8594;52.052;8.354;2022-07-26T13:24:34;100710.00;;;23.10
16956;BMP180;8594;52.052;8.354;2022-07-26T13:27:03;100709.00;;;23.00
16956;BMP180;8594;52.052;8.354;2022-07-26T13:29:29;100710.00;;;23.30
16956;BMP180;8594;52.052;8.354;2022-07-26T13:31:57;100716.00;;;23.40
16956;BMP180;8594;52.052;8.354;2022-07-26T13:34:26;100721.00;;;23.40
16956;BMP180;8594;52.052;8.354;2022-07-26T13:36:54;100717.00;;;23.50
16956;BMP180;8594;52.052;8.354;2022-07-26T13:39:22;100716.00;;;23.20
16956;BMP180;8594;52.052;8.354;2022-07-26T13:41:49;100732.00;;;23.30
16956;BMP180;8594;52.052;8.354;2022-07-26T13:44:16;100741.00;;;23.20
16956;BMP180;8594;52.052;8.354;2022-07-26T13:46:43;100738.00;;;23.10
16956;BMP180;8594;52.052;8.354;2022-07-26T13:49:10;100752.00;;;23.10
16956;BMP180;8594;52.052;8.354;2022-07-26T13:51:38;100750.00;;;22.80
16956;BMP180;8594;52.052;8.354;2022-07-26T13:54:26;100745.00;;;23.00
16956;BMP180;8594;52.052;8.354;2022-07-26T13:56:55;100755.00;;;23.30
16956;BMP180;8594;52.052;8.354;2022-07-26T13:59:22;100755.00;;;22.50
16956;BMP180;8594;52.052;8.354;2022-07-26T14:01:49;100757.00;;;22.40
16956;BMP180;8594;52.052;8.354;2022-07-26T14:04:17;100751.00;;;22.40
16956;BMP180;8594;52.052;8.354;2022-07-26T14:06:45;100756.00;;;22.70
16956;BMP180;8594;52.052;8.354;2022-07-26T14:09:13;100761.00;;;22.80
16956;BMP180;8594;52.052;8.354;2022-07-26T14:11:41;100757.00;;;22.90
16956;BMP180;8594;52.052;8.354;2022-07-26T14:14:08;100761.00;;;22.90
16956;BMP180;8594;52.052;8.354;2022-07-26T14:16:35;100768.00;;;23.20
16956;BMP180;8594;52.052;8.354;2022-07-26T14:19:02;100768.00;;;23.00